sensor_id;sensor_type;location;lat;lon;timestamp;temperature;humidity
1678;DHT22;6034;46.864;15.216;2023-07-02T08:02:50;22.40;99.90
1678;DHT22;6034;46.864;15.216;2023-07-02T08:05:21;22.50;99.90
1678;DHT22;6034;46.864;15.216;2023-07-02T08:07:48;22.20;99.90
1678;DHT22;6034;46.864;15.216;2023-07-02T08:10:16;22.60;99.90
1678;DHT22;6034;46.864;15.216;2023-07-02T08:12:43;23.00;99.90
1678;DHT22;6034;46.864;15.216;2023-07-02T08:15:11;23.20;99.90
1678;DHT22;6034;46.864;15.216;2023-07-02T08:17:40;22.70;99.90
1678;DHT22;6034;46.864;15.216;2023-07-02T08:20:08;22.20;99.90
1678;DHT22;6034;46.864;15.216;2023-07-02T08:22:37;22.80;99.90
1678;DHT22;6034;46.864;15.216;2023-07-02T08:25:06;23.10;99.90
1678;DHT22;6034;46.864;15.216;2023-07-02T08:27:34;23.00;99.90
1678;DHT22;6034;46.864;15.216;2023-07-02T08:30:03;22.90;99.90
1678;DHT22;6034;46.864;15.216;2023-07-02T08:32:30;22.40;99.90
1678;DHT22;6034;46.864;15.216;2023-07-02T08:35:00;22.40;99.90
1678;DHT22;6034;46.864;15.216;2023-07-02T08:37:28;22.70;99.90
1678;DHT22;6034;46.864;15.216;2023-07-02T08:39:55;23.10;99.90
1678;DHT22;6034;46.864;15.216;2023-07-02T08:42:23;23.40;99.90
1678;DHT22;6034;46.864;15.216;2023-07-02T08:44:56;23.20;99.90
1678;DHT22;6034;46.864;15.216;2023-07-02T08:47:24;23.20;99.90
1678;DHT22;6034;46.864;15.216;2023-07-02T08:49:55;23.20;99.90
1678;DHT22;6034;46.864;15.216;2023-07-02T08:52:31;23.50;99.90
1678;DHT22;6034;46.864;15.216;2023-07-02T08:54:58;23.70;99.90
1678;DHT22;6034;46.864;15.216;2023-07-02T08:57:27;23.50;99.90
1678;DHT22;6034;46.864;15.216;2023-07-02T08:59:56;23.30;99.90
1678;DHT22;6034;46.864;15.216;2023-07-02T09:02:33;23.20;99.90
1678;DHT22;6034;46.864;15.216;2023-07-02T09:05:00;23.10;99.90
1678;DHT22;6034;46.864;15.216;2023-07-02T09:07:30;23.60;99.90
1678;DHT22;6034;46.864;15.216;2023-07-02T09:09:57;24.20;99.90
1678;DHT22;6034;46.864;15.216;2023-07-02T09:12:25;24.40;99.90
1678;DHT22;6034;46.864;15.216;2023-07-02T09:14:57;24.70;99.90
1678;DHT22;6034;46.864;15.216;2023-07-02T09:17:28;24.90;99.90
1678;DHT22;6034;46.864;15.216;2023-07-02T09:19:57;24.30;99.90
1678;DHT22;6034;46.864;15.216;2023-07-02T09:22:26;24.30;99.90
1678;DHT22;6034;46.864;15.216;2023-07-02T09:24:56;24.10;99.90
1678;DHT22;6034;46.864;15.216;2023-07-02T09:27:34;24.00;99.90
1678;DHT22;6034;46.864;15.216;2023-07-02T09:30:07;24.10;99.90
1678;DHT22;6034;46.864;15.216;2023-07-02T09:32:35;24.00;99.90
1678;DHT22;6034;46.864;15.216;2023-07-02T09:35:02;24.10;99.90
1678;DHT22;6034;46.864;15.216;2023-07-02T09:37:31;24.10;99.90
1678;DHT22;6034;46.864;15.216;2023-07-02T09:40:00;24.00;99.90
1678;DHT22;6034;46.864;15.216;2023-07-02T09:42:31;24.30;99.90
1678;DHT22;6034;46.864;15.216;2023-07-02T09:44:59;24.40;99.90
1678;DHT22;6034;46.864;15.216;2023-07-02T09:47:29;24.40;99.90
1678;DHT22;6034;46.864;15.216;2023-07-02T09:50:00;24.30;99.90
1678;DHT22;6034;46.864;15.216;2023-07-02T09:52:29;24.20;99.90
1678;DHT22;6034;46.864;15.216;2023-07-02T09:54:58;24.50;99.90
1678;DHT22;6034;46.864;15.216;2023-07-02T09:57:25;24.90;99.90
1678;DHT22;6034;46.864;15.216;2023-07-02T09:59:56;24.90;99.90
1678;DHT22;6034;46.864;15.216;2023-07-02T10:02:25;24.50;99.90
1678;DHT22;6034;46.864;15.216;2023-07-02T10:04:53;24.60;99.90
1678;DHT22;6034;46.864;15.216;2023-07-02T10:07:32;24.70;99.90
1678;DHT22;6034;46.864;15.216;2023-07-02T10:10:01;24.40;99.90
1678;DHT22;6034;46.864;15.216;2023-07-02T10:12:29;24.00;99.90
1678;DHT22;6034;46.864;15.216;2023-07-02T10:14:58;24.10;99.90
1678;DHT22;6034;46.864;15.216;2023-07-02T10:17:28;24.20;99.90
1678;DHT22;6034;46.864;15.216;2023-07-02T10:19:58;24.30;99.90
1678;DHT22;6034;46.864;15.216;2023-07-02T10:22:26;24.40;99.90
1678;DHT22;6034;46.864;15.216;2023-07-02T10:24:54;24.40;99.90
1678;DHT22;6034;46.864;15.216;2023-07-02T10:27:35;24.60;99.90
1678;DHT22;6034;46.864;15.216;2023-07-02T10:30:03;25.10;99.90
1678;DHT22;6034;46.864;15.216;2023-07-02T10:32:32;24.90;99.90
1678;DHT22;6034;46.864;15.216;2023-07-02T10:35:00;24.60;99.90
1678;DHT22;6034;46.864;15.216;2023-07-02T10:37:35;24.30;99.90
1678;DHT22;6034;46.864;15.216;2023-07-02T10:40:05;24.40;99.90
1678;DHT22;6034;46.864;15.216;2023-07-02T10:42:44;24.40;99.90
1678;DHT22;6034;46.864;15.216;2023-07-02T10:45:12;24.30;99.90
1678;DHT22;6034;46.864;15.216;2023-07-02T10:47:40;24.30;99.90
1678;DHT22;6034;46.864;15.216;2023-07-02T10:50:15;24.40;99.90
1678;DHT22;6034;46.864;15.216;2023-07-02T10:52:42;24.40;99.90
1678;DHT22;6034;46.864;15.216;2023-07-02T10:55:10;24.40;99.90
1678;DHT22;6034;46.864;15.216;2023-07-02T10:57:40;24.40;99.90
1678;DHT22;6034;46.864;15.216;2023-07-02T11:00:08;24.30;99.90
1678;DHT22;6034;46.864;15.216;2023-07-02T11:02:36;24.40;99.90
1678;DHT22;6034;46.864;15.216;2023-07-02T11:05:04;24.50;99.90
1678;DHT22;6034;46.864;15.216;2023-07-02T11:07:32;24.50;99.90
1678;DHT22;6034;46.864;15.216;2023-07-02T11:10:00;24.70;99.90
1678;DHT22;6034;46.864;15.216;2023-07-02T11:12:31;24.80;99.90
1678;DHT22;6034;46.864;15.216;2023-07-02T11:15:09;24.80;99.90
1678;DHT22;6034;46.864;15.216;2023-07-02T11:17:37;24.60;99.90
1678;DHT22;6034;46.864;15.216;2023-07-02T11:20:07;24.50;99.90
1678;DHT22;6034;46.864;15.216;2023-07-02T11:22:35;24.50;99.90
1678;DHT22;6034;46.864;15.216;2023-07-02T11:25:13;24.90;99.90
1678;DHT22;6034;46.864;15.216;2023-07-02T11:27:40;24.60;99.90
1678;DHT22;6034;46.864;15.216;2023-07-02T11:30:11;24.90;99.90
1678;DHT22;6034;46.864;15.216;2023-07-02T11:32:49;25.20;99.90
1678;DHT22;6034;46.864;15.216;2023-07-02T11:35:17;25.40;99.90
1678;DHT22;6034;46.864;15.216;2023-07-02T11:37:47;25.00;99.90
1678;DHT22;6034;46.864;15.216;2023-07-02T11:40:17;24.50;99.90
1678;DHT22;6034;46.864;15.216;2023-07-02T11:42:44;24.30;99.90
1678;DHT22;6034;46.864;15.216;2023-07-02T11:45:13;24.30;99.90
1678;DHT22;6034;46.864;15.216;2023-07-02T11:47:40;24.30;99.90
1678;DHT22;6034;46.864;15.216;2023-07-02T11:50:08;24.40;99.90
1678;DHT22;6034;46.864;15.216;2023-07-02T11:52:36;24.70;99.90
1678;DHT22;6034;46.864;15.216;2023-07-02T11:55:03;24.80;99.90
1678;DHT22;6034;46.864;15.216;2023-07-02T11:57:31;25.00;99.90
1678;DHT22;6034;46.864;15.216;2023-07-02T11:59:58;25.00;99.90
1678;DHT22;6034;46.864;15.216;2023-07-02T12:02:27;24.70;99.90
1678;DHT22;6034;46.864;15.216;2023-07-02T12:04:55;24.80;99.90
1678;DHT22;6034;46.864;15.216;2023-07-02T12:07:23;24.70;99.90
1678;DHT22;6034;46.864;15.216;2023-07-02T12:09:50;24.80;99.90
1678;DHT22;6034;46.864;15.216;2023-07-02T12:12:18;24.70;99.90
1678;DHT22;6034;46.864;15.216;2023-07-02T12:14:45;24.70;99.90
1678;DHT22;6034;46.864;15.216;2023-07-02T12:17:12;24.60;99.90
1678;DHT22;6034;46.864;15.216;2023-07-02T12:19:41;24.60;99.90
1678;DHT22;6034;46.864;15.216;2023-07-02T12:22:09;24.50;99.90
1678;DHT22;6034;46.864;15.216;2023-07-02T12:24:36;24.40;99.90
1678;DHT22;6034;46.864;15.216;2023-07-02T12:27:04;24.20;99.90
1678;DHT22;6034;46.864;15.216;2023-07-02T12:29:35;24.10;99.90
1678;DHT22;6034;46.864;15.216;2023-07-02T12:32:03;24.00;99.90
1678;DHT22;6034;46.864;15.216;2023-07-02T12:34:31;24.00;99.90
1678;DHT22;6034;46.864;15.216;2023-07-02T12:37:03;24.00;99.90
1678;DHT22;6034;46.864;15.216;2023-07-02T12:39:30;24.00;99.90
1678;DHT22;6034;46.864;15.216;2023-07-02T12:42:00;24.10;99.90
1678;DHT22;6034;46.864;15.216;2023-07-02T12:44:27;24.20;99.90
1678;DHT22;6034;46.864;15.216;2023-07-02T12:46:55;24.20;99.90
1678;DHT22;6034;46.864;15.216;2023-07-02T12:49:22;24.20;99.90
1678;DHT22;6034;46.864;15.216;2023-07-02T12:51:49;24.10;99.90
1678;DHT22;6034;46.864;15.216;2023-07-02T12:54:18;24.10;99.90
1678;DHT22;6034;46.864;15.216;2023-07-02T12:56:45;24.20;99.90
1678;DHT22;6034;46.864;15.216;2023-07-02T12:59:14;24.10;99.90
1678;DHT22;6034;46.864;15.216;2023-07-02T13:01:44;24.20;99.90
1678;DHT22;6034;46.864;15.216;2023-07-02T13:04:12;24.20;99.90
1678;DHT22;6034;46.864;15.216;2023-07-02T13:06:40;24.20;99.90
1678;DHT22;6034;46.864;15.216;2023-07-02T13:09:13;24.30;99.90
1678;DHT22;6034;46.864;15.216;2023-07-02T13:11:47;24.20;99.90
1678;DHT22;6034;46.864;15.216;2023-07-02T13:14:17;24.10;99.90
1678;DHT22;6034;46.864;15.216;2023-07-02T13:16:45;24.10;99.90
1678;DHT22;6034;46.864;15.216;2023-07-02T13:19:14;24.00;99.90
1678;DHT22;6034;46.864;15.216;2023-07-02T13:21:42;23.90;99.90
1678;DHT22;6034;46.864;15.216;2023-07-02T13:24:11;23.80;99.90
1678;DHT22;6034;46.864;15.216;2023-07-02T13:26:39;23.80;99.90
1678;DHT22;6034;46.864;15.216;2023-07-02T13:29:08;23.60;99.90
1678;DHT22;6034;46.864;15.216;2023-07-02T13:31:37;23.50;99.90
1678;DHT22;6034;46.864;15.216;2023-07-02T13:34:05;23.30;99.90
1678;DHT22;6034;46.864;15.216;2023-07-02T13:36:33;23.40;99.90
1678;DHT22;6034;46.864;15.216;2023-07-02T13:39:01;23.40;99.90
1678;DHT22;6034;46.864;15.216;2023-07-02T13:41:31;23.40;99.90
1678;DHT22;6034;46.864;15.216;2023-07-02T13:44:00;23.20;99.90
1678;DHT22;6034;46.864;15.216;2023-07-02T13:46:30;23.00;99.90
1678;DHT22;6034;46.864;15.216;2023-07-02T13:49:00;22.90;99.90
1678;DHT22;6034;46.864;15.216;2023-07-02T13:51:28;22.90;99.90
1678;DHT22;6034;46.864;15.216;2023-07-02T13:53:57;23.00;99.90
1678;DHT22;6034;46.864;15.216;2023-07-02T13:56:26;22.90;99.90
1678;DHT22;6034;46.864;15.216;2023-07-02T13:59:06;22.90;99.90
1678;DHT22;6034;46.864;15.216;2023-07-02T14:01:34;22.90;99.90
1678;DHT22;6034;46.864;15.216;2023-07-02T14:04:04;22.90;99.90
1678;DHT22;6034;46.864;15.216;2023-07-02T14:06:32;22.90;99.90
1678;DHT22;6034;46.864;15.216;2023-07-02T14:09:00;22.90;99.90
1678;DHT22;6034;46.864;15.216;2023-07-02T14:11:29;22.90;99.90
1678;DHT22;6034;46.864;15.216;2023-07-02T14:13:58;22.90;99.90
1678;DHT22;6034;46.864;15.216;2023-07-02T14:16:26;22.90;99.90
1678;DHT22;6034;46.864;15.216;2023-07-02T14:18:56;23.00;99.90
1678;DHT22;6034;46.864;15.216;2023-07-02T14:21:25;23.10;99.90
1678;DHT22;6034;46.864;15.216;2023-07-02T14:23:53;23.10;99.90
1678;DHT22;6034;46.864;15.216;2023-07-02T14:26:23;23.20;99.90
1678;DHT22;6034;46.864;15.216;2023-07-02T14:28:52;23.20;99.90
1678;DHT22;6034;46.864;15.216;2023-07-02T14:31:19;23.20;99.90
1678;DHT22;6034;46.864;15.216;2023-07-02T14:33:49;23.40;99.90
1678;DHT22;6034;46.864;15.216;2023-07-02T14:36:17;23.40;99.90
1678;DHT22;6034;46.864;15.216;2023-07-02T14:38:46;23.50;99.90
1678;DHT22;6034;46.864;15.216;2023-07-02T14:41:14;23.40;99.90
1678;DHT22;6034;46.864;15.216;2023-07-02T14:43:42;23.50;99.90
1678;DHT22;6034;46.864;15.216;2023-07-02T14:46:10;23.40;99.90
1678;DHT22;6034;46.864;15.216;2023-07-02T14:48:38;23.50;99.90
1678;DHT22;6034;46.864;15.216;2023-07-02T14:51:08;23.60;99.90
1678;DHT22;6034;46.864;15.216;2023-07-02T14:53:35;23.60;99.90
1678;DHT22;6034;46.864;15.216;2023-07-02T14:56:03;23.50;99.90
1678;DHT22;6034;46.864;15.216;2023-07-02T14:58:31;23.50;99.90
1678;DHT22;6034;46.864;15.216;2023-07-02T15:00:59;23.50;99.90
1678;DHT22;6034;46.864;15.216;2023-07-02T15:03:29;23.60;99.90
1678;DHT22;6034;46.864;15.216;2023-07-02T15:06:05;23.60;99.90
1678;DHT22;6034;46.864;15.216;2023-07-02T15:08:34;23.60;99.90
1678;DHT22;6034;46.864;15.216;2023-07-02T15:11:03;23.70;99.90
1678;DHT22;6034;46.864;15.216;2023-07-02T15:13:31;23.80;99.90
1678;DHT22;6034;46.864;15.216;2023-07-02T15:15:58;23.80;99.90
1678;DHT22;6034;46.864;15.216;2023-07-02T15:18:26;23.80;99.90
1678;DHT22;6034;46.864;15.216;2023-07-02T15:20:53;23.90;99.90
1678;DHT22;6034;46.864;15.216;2023-07-02T15:23:22;23.90;99.90
1678;DHT22;6034;46.864;15.216;2023-07-02T15:25:56;23.90;99.90
1678;DHT22;6034;46.864;15.216;2023-07-02T15:28:24;23.90;99.90
1678;DHT22;6034;46.864;15.216;2023-07-02T15:30:52;23.90;99.90
1678;DHT22;6034;46.864;15.216;2023-07-02T15:33:20;24.00;99.90
1678;DHT22;6034;46.864;15.216;2023-07-02T15:35:47;24.00;99.90
1678;DHT22;6034;46.864;15.216;2023-07-02T15:38:14;24.00;99.90
1678;DHT22;6034;46.864;15.216;2023-07-02T15:40:42;24.00;99.90
1678;DHT22;6034;46.864;15.216;2023-07-02T15:43:11;24.10;99.90
1678;DHT22;6034;46.864;15.216;2023-07-02T15:45:38;24.10;99.90
1678;DHT22;6034;46.864;15.216;2023-07-02T15:48:06;24.00;99.90
1678;DHT22;6034;46.864;15.216;2023-07-02T15:50:34;24.00;99.90
1678;DHT22;6034;46.864;15.216;2023-07-02T15:53:01;23.90;99.90
1678;DHT22;6034;46.864;15.216;2023-07-02T15:55:33;23.90;99.90
1678;DHT22;6034;46.864;15.216;2023-07-02T15:58:01;23.70;99.90
1678;DHT22;6034;46.864;15.216;2023-07-02T16:00:30;23.50;99.90
1678;DHT22;6034;46.864;15.216;2023-07-02T16:02:58;23.70;99.90
1678;DHT22;6034;46.864;15.216;2023-07-02T16:05:26;23.70;99.90
1678;DHT22;6034;46.864;15.216;2023-07-02T16:07:53;23.70;99.90
1678;DHT22;6034;46.864;15.216;2023-07-02T16:10:21;23.60;99.90
1678;DHT22;6034;46.864;15.216;2023-07-02T16:12:51;23.70;99.90
1678;DHT22;6034;46.864;15.216;2023-07-02T16:15:19;23.70;99.90
1678;DHT22;6034;46.864;15.216;2023-07-02T16:17:48;23.70;99.90
1678;DHT22;6034;46.864;15.216;2023-07-02T16:20:19;23.80;99.90
1678;DHT22;6034;46.864;15.216;2023-07-02T16:22:46;23.80;99.90
1678;DHT22;6034;46.864;15.216;2023-07-02T16:25:14;23.80;99.90
1678;DHT22;6034;46.864;15.216;2023-07-02T16:27:42;23.90;99.90
1678;DHT22;6034;46.864;15.216;2023-07-02T16:30:11;23.90;99.90
1678;DHT22;6034;46.864;15.216;2023-07-02T16:32:38;23.90;99.90
1678;DHT22;6034;46.864;15.216;2023-07-02T16:35:07;23.90;99.90
1678;DHT22;6034;46.864;15.216;2023-07-02T16:37:36;23.90;99.90
1678;DHT22;6034;46.864;15.216;2023-07-02T16:40:05;23.90;99.90
1678;DHT22;6034;46.864;15.216;2023-07-02T16:42:32;23.90;99.90
1678;DHT22;6034;46.864;15.216;2023-07-02T16:45:01;23.90;99.90
1678;DHT22;6034;46.864;15.216;2023-07-02T16:47:31;23.90;99.90
1678;DHT22;6034;46.864;15.216;2023-07-02T16:50:00;23.90;99.90
1678;DHT22;6034;46.864;15.216;2023-07-02T16:52:29;23.80;99.90
1678;DHT22;6034;46.864;15.216;2023-07-02T16:54:58;23.80;99.90
1678;DHT22;6034;46.864;15.216;2023-07-02T16:57:26;23.80;99.90
1678;DHT22;6034;46.864;15.216;2023-07-02T16:59:54;23.80;99.90
1678;DHT22;6034;46.864;15.216;2023-07-02T17:02:22;23.70;99.90
1678;DHT22;6034;46.864;15.216;2023-07-02T17:04:49;23.70;99.90
1678;DHT22;6034;46.864;15.216;2023-07-02T17:07:17;23.70;99.90
1678;DHT22;6034;46.864;15.216;2023-07-02T17:09:47;23.70;99.90
1678;DHT22;6034;46.864;15.216;2023-07-02T17:12:17;23.60;99.90
1678;DHT22;6034;46.864;15.216;2023-07-02T17:14:47;23.60;99.90
1678;DHT22;6034;46.864;15.216;2023-07-02T17:17:19;23.60;99.90
1678;DHT22;6034;46.864;15.216;2023-07-02T17:19:49;23.60;99.90
1678;DHT22;6034;46.864;15.216;2023-07-02T17:22:19;23.50;99.90
1678;DHT22;6034;46.864;15.216;2023-07-02T17:24:50;23.50;99.90
1678;DHT22;6034;46.864;15.216;2023-07-02T17:27:20;23.50;99.90
1678;DHT22;6034;46.864;15.216;2023-07-02T17:29:50;23.50;99.90
1678;DHT22;6034;46.864;15.216;2023-07-02T17:32:19;23.40;99.90
1678;DHT22;6034;46.864;15.216;2023-07-02T17:34:46;23.30;99.90
1678;DHT22;6034;46.864;15.216;2023-07-02T17:37:15;23.40;99.90
1678;DHT22;6034;46.864;15.216;2023-07-02T17:39:51;23.30;99.90
1678;DHT22;6034;46.864;15.216;2023-07-02T17:42:21;23.20;99.90
1678;DHT22;6034;46.864;15.216;2023-07-02T17:44:49;23.10;99.90
1678;DHT22;6034;46.864;15.216;2023-07-02T17:47:23;23.10;99.90
1678;DHT22;6034;46.864;15.216;2023-07-02T17:49:51;22.90;99.90
1678;DHT22;6034;46.864;15.216;2023-07-02T17:52:20;22.70;99.90
1678;DHT22;6034;46.864;15.216;2023-07-02T17:54:52;22.60;99.90
1678;DHT22;6034;46.864;15.216;2023-07-02T17:57:24;22.60;99.90
1678;DHT22;6034;46.864;15.216;2023-07-02T17:59:53;22.50;99.90
1678;DHT22;6034;46.864;15.216;2023-07-02T18:02:22;22.50;99.90
1678;DHT22;6034;46.864;15.216;2023-07-02T18:04:51;22.50;99.90
1678;DHT22;6034;46.864;15.216;2023-07-02T18:07:19;22.40;99.90
1678;DHT22;6034;46.864;15.216;2023-07-02T18:09:51;22.40;99.90
1678;DHT22;6034;46.864;15.216;2023-07-02T18:12:25;22.30;99.90
1678;DHT22;6034;46.864;15.216;2023-07-02T18:14:54;22.30;99.90
1678;DHT22;6034;46.864;15.216;2023-07-02T18:17:22;22.40;99.90
1678;DHT22;6034;46.864;15.216;2023-07-02T18:19:52;22.40;99.90
1678;DHT22;6034;46.864;15.216;2023-07-02T18:22:22;22.50;99.90
1678;DHT22;6034;46.864;15.216;2023-07-02T18:24:52;22.40;99.90
1678;DHT22;6034;46.864;15.216;2023-07-02T18:27:21;22.30;99.90
1678;DHT22;6034;46.864;15.216;2023-07-02T18:29:49;22.40;99.90
1678;DHT22;6034;46.864;15.216;2023-07-02T18:32:19;22.30;99.90
1678;DHT22;6034;46.864;15.216;2023-07-02T18:34:48;22.30;99.90
1678;DHT22;6034;46.864;15.216;2023-07-02T18:37:16;22.40;99.90
1678;DHT22;6034;46.864;15.216;2023-07-02T18:39:44;22.40;99.90
1678;DHT22;6034;46.864;15.216;2023-07-02T18:42:13;22.30;99.90
1678;DHT22;6034;46.864;15.216;2023-07-02T18:44:48;22.30;99.90
1678;DHT22;6034;46.864;15.216;2023-07-02T18:47:16;22.30;99.90
1678;DHT22;6034;46.864;15.216;2023-07-02T18:49:44;22.20;99.90
1678;DHT22;6034;46.864;15.216;2023-07-02T18:52:13;22.20;99.90
1678;DHT22;6034;46.864;15.216;2023-07-02T18:54:45;22.20;99.90
1678;DHT22;6034;46.864;15.216;2023-07-02T18:57:16;22.10;99.90
1678;DHT22;6034;46.864;15.216;2023-07-02T18:59:46;22.20;99.90
1678;DHT22;6034;46.864;15.216;2023-07-02T19:02:14;22.30;99.90
1678;DHT22;6034;46.864;15.216;2023-07-02T19:04:48;22.20;99.90
1678;DHT22;6034;46.864;15.216;2023-07-02T19:07:16;22.20;99.90
1678;DHT22;6034;46.864;15.216;2023-07-02T19:09:45;22.20;99.90
1678;DHT22;6034;46.864;15.216;2023-07-02T19:12:17;22.10;99.90
1678;DHT22;6034;46.864;15.216;2023-07-02T19:14:46;22.10;99.90
1678;DHT22;6034;46.864;15.216;2023-07-02T19:17:15;22.10;99.90
1678;DHT22;6034;46.864;15.216;2023-07-02T19:19:44;22.00;99.90
1678;DHT22;6034;46.864;15.216;2023-07-02T19:22:15;21.80;99.90
1678;DHT22;6034;46.864;15.216;2023-07-02T19:24:44;21.80;99.90
1678;DHT22;6034;46.864;15.216;2023-07-02T19:27:13;21.90;99.90
1678;DHT22;6034;46.864;15.216;2023-07-02T19:29:47;21.90;99.90
1678;DHT22;6034;46.864;15.216;2023-07-02T19:32:23;22.00;99.90
1678;DHT22;6034;46.864;15.216;2023-07-02T19:34:51;22.00;99.90
1678;DHT22;6034;46.864;15.216;2023-07-02T19:37:20;22.00;99.90
1678;DHT22;6034;46.864;15.216;2023-07-02T19:39:49;22.00;99.90
1678;DHT22;6034;46.864;15.216;2023-07-02T19:42:17;21.90;99.90
1678;DHT22;6034;46.864;15.216;2023-07-02T19:44:51;21.90;99.90
1678;DHT22;6034;46.864;15.216;2023-07-02T19:47:19;21.90;99.90
1678;DHT22;6034;46.864;15.216;2023-07-02T19:49:51;21.90;99.90
1678;DHT22;6034;46.864;15.216;2023-07-02T19:52:20;21.90;99.90
1678;DHT22;6034;46.864;15.216;2023-07-02T19:54:48;21.90;99.90
1678;DHT22;6034;46.864;15.216;2023-07-02T19:57:16;21.90;99.90
1678;DHT22;6034;46.864;15.216;2023-07-02T19:59:48;21.90;99.90
1678;DHT22;6034;46.864;15.216;2023-07-02T20:02:18;21.80;99.90
1678;DHT22;6034;46.864;15.216;2023-07-02T20:04:48;21.70;99.90
1678;DHT22;6034;46.864;15.216;2023-07-02T20:07:17;21.70;99.90
1678;DHT22;6034;46.864;15.216;2023-07-02T20:09:45;21.70;99.90
1678;DHT22;6034;46.864;15.216;2023-07-02T20:12:14;21.70;99.90
1678;DHT22;6034;46.864;15.216;2023-07-02T20:14:41;21.70;99.90
1678;DHT22;6034;46.864;15.216;2023-07-02T20:17:15;21.70;99.90
1678;DHT22;6034;46.864;15.216;2023-07-02T20:19:45;21.70;99.90
1678;DHT22;6034;46.864;15.216;2023-07-02T20:22:16;21.60;99.90
1678;DHT22;6034;46.864;15.216;2023-07-02T20:24:45;21.60;99.90
1678;DHT22;6034;46.864;15.216;2023-07-02T20:27:13;21.70;99.90
1678;DHT22;6034;46.864;15.216;2023-07-02T20:29:45;21.60;99.90
1678;DHT22;6034;46.864;15.216;2023-07-02T20:32:15;21.60;99.90
1678;DHT22;6034;46.864;15.216;2023-07-02T20:34:44;21.70;99.90
1678;DHT22;6034;46.864;15.216;2023-07-02T20:37:13;21.60;99.90
1678;DHT22;6034;46.864;15.216;2023-07-02T20:39:42;21.60;99.90
1678;DHT22;6034;46.864;15.216;2023-07-02T20:42:11;21.50;99.90
1678;DHT22;6034;46.864;15.216;2023-07-02T20:44:40;21.50;99.90
1678;DHT22;6034;46.864;15.216;2023-07-02T20:47:09;21.50;99.90
1678;DHT22;6034;46.864;15.216;2023-07-02T20:49:39;21.50;99.90
1678;DHT22;6034;46.864;15.216;2023-07-02T20:52:08;21.50;99.90
1678;DHT22;6034;46.864;15.216;2023-07-02T20:54:35;21.50;99.90
1678;DHT22;6034;46.864;15.216;2023-07-02T20:57:03;21.50;99.90
1678;DHT22;6034;46.864;15.216;2023-07-02T20:59:30;21.50;99.90
